createdAt,value
2023-05-25T00:01:24.406Z,81.62
2023-05-25T00:03:52.613Z,81.17
2023-05-25T00:06:20.034Z,81.25
2023-05-25T00:08:47.919Z,81.28
2023-05-25T00:11:17.054Z,81.48
2023-05-25T00:13:44.301Z,81.92
2023-05-25T00:16:11.417Z,82.24
2023-05-25T00:18:38.735Z,81.84
2023-05-25T00:21:06.865Z,82.14
2023-05-25T00:23:34.080Z,81.96
2023-05-25T00:26:03.118Z,81.89
2023-05-25T00:28:30.325Z,81.72
2023-05-25T00:30:57.586Z,81.80
2023-05-25T00:33:24.902Z,81.85
2023-05-25T00:35:54.084Z,81.70
2023-05-25T00:38:21.810Z,81.78
2023-05-25T00:40:49.093Z,81.27
2023-05-25T00:43:16.657Z,81.55
2023-05-25T00:45:43.972Z,81.07
2023-05-25T00:48:11.411Z,80.82
2023-05-25T00:50:42.962Z,80.36
2023-05-25T00:53:11.649Z,80.43
2023-05-25T00:55:44.727Z,79.85
2023-05-25T00:58:14.485Z,79.75
2023-05-25T01:00:42.926Z,79.88
2023-05-25T01:03:13.026Z,79.39
2023-05-25T01:05:45.060Z,79.29
2023-05-25T01:08:14.421Z,79.55
2023-05-25T01:10:42.978Z,79.78
2023-05-25T01:13:10.670Z,79.81
2023-05-25T01:15:38.508Z,80.10
2023-05-25T01:18:05.989Z,80.01
2023-05-25T01:20:33.644Z,80.33
2023-05-25T01:23:12.058Z,80.39
2023-05-25T01:26:00.160Z,80.89
2023-05-25T01:28:40.287Z,80.72
2023-05-25T01:31:08.894Z,81.21
2023-05-25T01:33:36.704Z,81.43
2023-05-25T01:36:04.685Z,81.57
2023-05-25T01:38:32.076Z,82.28
2023-05-25T01:41:00.405Z,82.62
2023-05-25T01:43:27.636Z,82.38
2023-05-25T01:46:36.250Z,82.78
2023-05-25T01:49:09.527Z,82.89
2023-05-25T01:52:01.479Z,83.29
2023-05-25T01:54:52.600Z,83.39
2023-05-25T01:57:20.900Z,83.47
2023-05-25T01:59:49.699Z,83.56
2023-05-25T02:02:20.104Z,83.74
2023-05-25T02:04:47.633Z,84.21
2023-05-25T02:07:15.004Z,84.41
2023-05-25T02:09:42.187Z,84.51
2023-05-25T02:12:09.866Z,84.66
2023-05-25T02:14:37.097Z,84.73
2023-05-25T02:17:04.562Z,85.19
2023-05-25T02:19:31.774Z,85.31
2023-05-25T02:21:59.053Z,85.97
2023-05-25T02:24:26.569Z,85.99
2023-05-25T02:26:53.787Z,86.64
2023-05-25T02:29:21.102Z,86.78
2023-05-25T02:31:48.475Z,86.51
2023-05-25T02:34:15.759Z,86.96
2023-05-25T02:36:44.928Z,87.36
2023-05-25T02:39:12.179Z,87.49
2023-05-25T02:41:39.516Z,88.06
2023-05-25T02:44:06.740Z,87.81
2023-05-25T02:46:34.163Z,88.21
2023-05-25T02:49:01.649Z,89.17
2023-05-25T02:51:29.263Z,88.93
2023-05-25T02:53:56.624Z,89.13
2023-05-25T02:56:23.863Z,89.25
2023-05-25T02:58:51.268Z,89.42
2023-05-25T03:01:19.015Z,89.45
2023-05-25T03:03:47.350Z,89.90
2023-05-25T03:06:14.780Z,89.59
2023-05-25T03:08:41.913Z,90.02
2023-05-25T03:11:09.121Z,90.33
2023-05-25T03:13:36.328Z,90.50
2023-05-25T03:16:03.522Z,90.46
2023-05-25T03:18:30.894Z,90.30
2023-05-25T03:20:58.078Z,90.48
2023-05-25T03:23:25.425Z,90.23
2023-05-25T03:25:52.604Z,90.85
2023-05-25T03:28:20.897Z,90.54
2023-05-25T03:30:48.071Z,90.68
2023-05-25T03:33:15.315Z,90.91
2023-05-25T03:35:42.843Z,90.81
2023-05-25T03:38:10.506Z,90.69
2023-05-25T03:40:37.713Z,90.83
2023-05-25T03:43:04.976Z,90.57
2023-05-25T03:45:32.242Z,90.59
2023-05-25T03:47:59.497Z,90.72
2023-05-25T03:50:26.702Z,90.78
2023-05-25T03:52:53.970Z,91.22
2023-05-25T03:55:21.190Z,91.20
2023-05-25T03:57:48.417Z,91.81
2023-05-25T04:00:16.974Z,92.18
2023-05-25T04:02:44.368Z,92.11
2023-05-25T04:05:11.698Z,92.13
2023-05-25T04:07:38.910Z,92.21
2023-05-25T04:10:07.266Z,91.71
2023-05-25T04:12:34.566Z,91.64
2023-05-25T04:15:03.923Z,91.68
2023-05-25T04:17:31.569Z,91.11
2023-05-25T04:19:58.932Z,90.97
2023-05-25T04:22:26.118Z,90.95
2023-05-25T04:24:54.052Z,90.73
2023-05-25T04:27:22.207Z,90.75
2023-05-25T04:29:50.275Z,90.31
2023-05-25T04:32:18.655Z,90.44
2023-05-25T04:34:46.757Z,90.48
2023-05-25T04:37:14.189Z,90.48
2023-05-25T04:39:41.425Z,90.45
2023-05-25T04:42:08.820Z,90.21
2023-05-25T04:44:36.166Z,90.23
2023-05-25T04:47:03.386Z,90.15
2023-05-25T04:49:31.330Z,90.11
2023-05-25T04:51:58.885Z,90.23
2023-05-25T04:54:26.010Z,90.14
2023-05-25T04:56:53.438Z,89.91
2023-05-25T04:59:20.922Z,89.60
2023-05-25T05:01:48.419Z,89.36
2023-05-25T05:04:16.539Z,89.35
2023-05-25T05:06:44.291Z,89.44
2023-05-25T05:09:11.937Z,88.85
2023-05-25T05:11:39.216Z,88.59
2023-05-25T05:14:06.469Z,88.63
2023-05-25T05:16:35.088Z,87.96
2023-05-25T05:19:02.532Z,88.02
2023-05-25T05:21:29.867Z,87.68
2023-05-25T05:23:57.178Z,87.40
2023-05-25T05:26:24.521Z,87.22
2023-05-25T05:28:52.630Z,87.16
2023-05-25T05:31:20.005Z,86.84
2023-05-25T05:33:47.405Z,86.55
2023-05-25T05:36:14.713Z,86.10
2023-05-25T05:38:42.546Z,85.44
2023-05-25T05:41:13.801Z,84.67
2023-05-25T05:43:42.847Z,84.21
2023-05-25T05:46:13.421Z,83.58
2023-05-25T05:48:41.401Z,82.90
2023-05-25T05:51:11.598Z,82.49
2023-05-25T05:53:38.866Z,81.94
2023-05-25T05:56:07.047Z,81.83
2023-05-25T05:58:34.299Z,81.74
2023-05-25T06:01:02.215Z,80.91
2023-05-25T06:03:29.451Z,80.62
2023-05-25T06:05:56.724Z,79.50
2023-05-25T06:08:24.055Z,79.06
2023-05-25T06:10:51.277Z,78.84
2023-05-25T06:13:18.471Z,78.24
2023-05-25T06:15:45.853Z,77.17
2023-05-25T06:18:14.368Z,76.84
2023-05-25T06:20:41.896Z,75.92
2023-05-25T06:23:11.461Z,75.04
2023-05-25T06:25:38.596Z,74.77
2023-05-25T06:28:05.757Z,73.80
2023-05-25T06:30:33.033Z,73.72
2023-05-25T06:33:00.407Z,72.30
2023-05-25T06:35:29.410Z,70.76
2023-05-25T06:37:56.724Z,70.26
2023-05-25T06:40:23.874Z,70.53
2023-05-25T06:42:51.087Z,69.93
2023-05-25T06:45:18.283Z,70.03
2023-05-25T06:47:45.576Z,69.60
2023-05-25T06:50:13.613Z,69.29
2023-05-25T06:52:40.810Z,68.03
2023-05-25T06:55:08.836Z,66.97
2023-05-25T06:57:36.210Z,67.60
2023-05-25T07:00:04.798Z,66.04
2023-05-25T07:02:32.023Z,66.02
2023-05-25T07:04:59.315Z,65.40
2023-05-25T07:07:26.733Z,64.17
2023-05-25T07:09:53.917Z,63.25
2023-05-25T07:12:21.492Z,62.71
2023-05-25T07:14:48.787Z,62.90
2023-05-25T07:17:16.180Z,60.58
2023-05-25T07:19:43.522Z,60.44
2023-05-25T07:22:10.977Z,59.09
2023-05-25T07:24:38.289Z,59.06
2023-05-25T07:27:06.852Z,58.86
2023-05-25T07:29:34.113Z,58.52
2023-05-25T07:32:01.337Z,57.82
2023-05-25T07:34:28.492Z,54.83
2023-05-25T07:36:55.716Z,53.58
2023-05-25T07:39:22.878Z,53.30
2023-05-25T07:41:50.072Z,52.43
2023-05-25T07:44:17.423Z,51.19
2023-05-25T07:46:44.652Z,51.26
2023-05-25T07:49:15.926Z,52.15
2023-05-25T07:51:44.789Z,52.62
2023-05-25T07:54:12.162Z,53.12
2023-05-25T07:56:39.502Z,53.06
2023-05-25T07:59:06.732Z,52.35
2023-05-25T08:01:33.943Z,52.83
2023-05-25T08:04:01.241Z,52.87
2023-05-25T08:06:28.526Z,52.66
2023-05-25T08:08:55.827Z,52.09
2023-05-25T08:11:26.319Z,50.80
2023-05-25T08:13:53.587Z,50.83
2023-05-25T08:16:20.919Z,50.83
2023-05-25T08:18:48.197Z,49.70
2023-05-25T08:21:15.518Z,50.11
2023-05-25T08:23:42.889Z,49.74
2023-05-25T08:26:29.031Z,48.39
2023-05-25T08:28:58.524Z,47.49
2023-05-25T08:31:25.857Z,48.17
2023-05-25T08:33:53.088Z,48.62
2023-05-25T08:36:20.274Z,48.86
2023-05-25T08:38:47.447Z,48.37
2023-05-25T08:41:14.817Z,47.96
2023-05-25T08:43:42.492Z,46.89
2023-05-25T08:46:09.741Z,47.63
2023-05-25T08:48:42.196Z,47.50
2023-05-25T08:51:11.641Z,47.15
2023-05-25T08:53:41.168Z,47.09
2023-05-25T08:56:18.443Z,46.35
2023-05-25T08:58:54.252Z,46.35
2023-05-25T09:01:22.221Z,46.27
2023-05-25T09:03:50.230Z,46.60
2023-05-25T09:06:17.647Z,47.27
2023-05-25T09:08:45.279Z,50.04
2023-05-25T09:11:16.558Z,50.88
2023-05-25T09:13:44.715Z,51.32
2023-05-25T09:16:11.941Z,51.45
2023-05-25T09:18:40.121Z,50.12
2023-05-25T09:21:07.318Z,49.72
2023-05-25T09:23:35.379Z,46.66
2023-05-25T09:26:02.628Z,45.77
2023-05-25T09:28:29.773Z,45.63
2023-05-25T09:30:57.046Z,45.13
2023-05-25T09:33:24.327Z,45.29
2023-05-25T09:35:51.633Z,45.31
2023-05-25T09:38:19.311Z,45.68
2023-05-25T09:40:46.949Z,46.55
2023-05-25T09:43:24.921Z,47.11
2023-05-25T09:46:00.080Z,46.42
2023-05-25T09:48:29.344Z,46.60
2023-05-25T09:50:56.832Z,46.07
2023-05-25T09:53:24.149Z,45.81
2023-05-25T09:55:54.144Z,45.67
2023-05-25T09:58:27.369Z,46.55
2023-05-25T10:00:55.222Z,46.88
2023-05-25T10:03:22.723Z,48.24
2023-05-25T10:05:50.450Z,47.42
2023-05-25T10:08:20.190Z,48.95
2023-05-25T10:10:49.963Z,48.30
2023-05-25T10:13:22.009Z,48.15
2023-05-25T10:15:53.093Z,48.36
2023-05-25T10:18:25.657Z,47.00
2023-05-25T10:21:02.481Z,46.75
2023-05-25T10:23:41.936Z,45.39
2023-05-25T10:26:10.114Z,44.96
2023-05-25T10:28:39.698Z,45.36
2023-05-25T10:31:07.290Z,44.89
2023-05-25T10:33:34.940Z,44.53
2023-05-25T10:36:10.594Z,44.04
2023-05-25T10:38:40.287Z,43.96
2023-05-25T10:41:09.821Z,44.31
2023-05-25T10:43:40.925Z,44.90
2023-05-25T10:46:08.638Z,44.41
2023-05-25T10:48:37.324Z,45.26
2023-05-25T10:51:04.664Z,45.27
2023-05-25T10:53:31.887Z,45.02
2023-05-25T10:56:03.850Z,44.41
2023-05-25T10:58:31.898Z,43.35
2023-05-25T11:01:03.381Z,43.57
2023-05-25T11:04:10.055Z,43.39
2023-05-25T11:06:37.638Z,43.49
2023-05-25T11:09:06.575Z,43.53
2023-05-25T11:11:58.785Z,43.25
2023-05-25T11:14:42.254Z,42.60
2023-05-25T11:17:11.689Z,42.22
2023-05-25T11:20:02.208Z,42.57
2023-05-25T11:22:37.404Z,42.79
2023-05-25T11:25:24.553Z,43.47
2023-05-25T11:27:54.293Z,42.91
2023-05-25T11:30:28.003Z,41.46
2023-05-25T11:32:59.504Z,41.84
2023-05-25T11:35:26.905Z,40.72
2023-05-25T11:37:55.062Z,40.76
2023-05-25T11:40:25.599Z,41.32
2023-05-25T11:42:52.876Z,41.44
2023-05-25T11:45:22.370Z,41.07
2023-05-25T11:47:49.607Z,40.28
2023-05-25T11:50:17.282Z,41.27
2023-05-25T11:52:44.471Z,41.00
2023-05-25T11:55:15.822Z,40.31
2023-05-25T11:57:43.181Z,40.68
2023-05-25T12:00:11.441Z,39.64
2023-05-25T12:02:39.817Z,37.90
2023-05-25T12:05:09.478Z,38.73
2023-05-25T12:07:43.745Z,39.05
2023-05-25T12:10:12.586Z,39.14
2023-05-25T12:12:44.182Z,38.82
2023-05-25T12:15:13.757Z,39.32
2023-05-25T12:17:42.742Z,39.90
2023-05-25T12:20:12.030Z,39.47
2023-05-25T12:22:39.837Z,39.38
2023-05-25T12:25:08.228Z,39.44
2023-05-25T12:27:35.757Z,40.94
2023-05-25T12:30:04.669Z,41.02
2023-05-25T12:32:31.970Z,41.85
2023-05-25T12:35:06.533Z,42.24
2023-05-25T12:37:34.366Z,43.00
2023-05-25T12:40:01.630Z,43.34
2023-05-25T12:42:31.220Z,44.83
2023-05-25T12:45:00.756Z,44.98
2023-05-25T12:47:30.121Z,44.99
2023-05-25T12:50:14.001Z,45.62
2023-05-25T12:52:43.035Z,45.35
2023-05-25T12:55:26.101Z,45.25
2023-05-25T12:57:58.230Z,44.60
2023-05-25T13:00:32.188Z,45.02
2023-05-25T13:03:00.125Z,45.00
2023-05-25T13:05:29.173Z,44.35
2023-05-25T13:07:57.727Z,43.80
2023-05-25T13:10:25.859Z,44.10
2023-05-25T13:12:53.911Z,44.61
2023-05-25T13:15:21.724Z,44.60
2023-05-25T13:17:50.572Z,44.17
2023-05-25T13:20:22.556Z,43.39
2023-05-25T13:22:51.042Z,41.07
2023-05-25T13:25:19.016Z,40.98
2023-05-25T13:27:51.237Z,40.98
2023-05-25T13:30:18.825Z,41.51
2023-05-25T13:32:47.020Z,41.45
2023-05-25T13:35:36.955Z,41.45
2023-05-25T13:38:04.253Z,40.80
2023-05-25T13:40:31.469Z,39.07
2023-05-25T13:42:58.633Z,38.59
2023-05-25T13:45:25.897Z,37.85
2023-05-25T13:47:53.166Z,36.76
2023-05-25T13:50:20.468Z,35.71
2023-05-25T13:52:48.997Z,36.07
2023-05-25T13:55:16.417Z,36.57
2023-05-25T13:57:43.564Z,37.41
2023-05-25T14:00:11.091Z,38.17
2023-05-25T14:02:38.384Z,38.35
2023-05-25T14:05:05.915Z,38.41
2023-05-25T14:07:33.205Z,37.90
2023-05-25T14:10:00.703Z,37.89
2023-05-25T14:12:27.968Z,36.17
2023-05-25T14:14:55.773Z,35.69
2023-05-25T14:17:24.829Z,35.42
2023-05-25T14:19:52.366Z,35.36
2023-05-25T14:22:19.628Z,33.61
2023-05-25T14:24:46.792Z,33.45
2023-05-25T14:27:16.099Z,31.89
2023-05-25T14:29:43.341Z,30.19
2023-05-25T14:32:10.848Z,27.91
2023-05-25T14:34:38.054Z,26.06
2023-05-25T14:37:05.410Z,25.86
2023-05-25T14:39:32.613Z,27.19
2023-05-25T14:41:59.953Z,26.52
2023-05-25T14:44:27.289Z,24.32
2023-05-25T14:46:54.986Z,22.18
2023-05-25T14:49:25.125Z,20.49
2023-05-25T14:51:54.003Z,19.20
2023-05-25T14:54:21.298Z,21.82
2023-05-25T14:56:48.529Z,22.93
2023-05-25T14:59:15.868Z,20.66
2023-05-25T15:01:43.164Z,19.40
2023-05-25T15:04:10.685Z,17.50
2023-05-25T15:06:39.395Z,18.42
2023-05-25T15:09:06.925Z,17.70
2023-05-25T15:11:34.139Z,16.72
2023-05-25T15:14:01.498Z,15.08
2023-05-25T15:16:28.753Z,15.53
2023-05-25T15:18:56.121Z,17.36
2023-05-25T15:21:23.391Z,17.09
2023-05-25T15:23:50.962Z,18.69
2023-05-25T15:26:18.168Z,17.36
2023-05-25T15:28:45.352Z,15.86
2023-05-25T15:31:12.713Z,14.74
2023-05-25T15:33:53.842Z,15.27
2023-05-25T15:36:25.467Z,18.24
2023-05-25T15:38:52.719Z,18.72
2023-05-25T15:41:19.937Z,19.00
2023-05-25T15:43:57.964Z,20.12
2023-05-25T15:46:25.865Z,22.45
2023-05-25T15:48:54.088Z,23.63
2023-05-25T15:51:21.577Z,25.32
2023-05-25T15:53:48.892Z,27.13
2023-05-25T15:56:16.077Z,28.85
2023-05-25T15:58:47.024Z,25.43
2023-05-25T16:01:14.507Z,21.98
2023-05-25T16:03:49.859Z,20.61
2023-05-25T16:06:17.480Z,18.17
2023-05-25T16:08:44.771Z,16.84
2023-05-25T16:11:12.056Z,16.88
2023-05-25T16:13:39.195Z,15.37
2023-05-25T16:16:06.976Z,15.67
2023-05-25T16:18:34.247Z,16.11
2023-05-25T16:21:01.774Z,15.53
2023-05-25T16:23:28.983Z,17.15
2023-05-25T16:25:56.164Z,18.98
2023-05-25T16:28:23.433Z,20.85
2023-05-25T16:30:50.770Z,22.52
2023-05-25T16:33:17.930Z,24.91
2023-05-25T16:35:45.669Z,27.14
2023-05-25T16:38:13.047Z,28.53
2023-05-25T16:40:40.177Z,30.02
2023-05-25T16:43:07.460Z,31.67
2023-05-25T16:45:34.727Z,33.01
2023-05-25T16:48:02.022Z,34.15
2023-05-25T16:50:29.262Z,34.72
2023-05-25T16:52:57.053Z,35.76
2023-05-25T16:55:24.341Z,36.35
2023-05-25T16:57:51.524Z,36.42
2023-05-25T17:00:18.769Z,37.28
2023-05-25T17:02:46.030Z,38.04
2023-05-25T17:05:13.250Z,38.64
2023-05-25T17:07:40.915Z,39.24
2023-05-25T17:10:08.803Z,39.39
2023-05-25T17:12:36.403Z,39.57
2023-05-25T17:15:03.855Z,40.20
2023-05-25T17:17:31.194Z,40.90
2023-05-25T17:19:58.873Z,41.48
2023-05-25T17:22:26.137Z,41.91
2023-05-25T17:24:53.349Z,42.38
2023-05-25T17:27:20.532Z,42.82
2023-05-25T17:29:47.786Z,43.44
2023-05-25T17:32:15.038Z,43.69
2023-05-25T17:34:42.250Z,43.94
2023-05-25T17:37:09.510Z,44.66
2023-05-25T17:39:36.784Z,44.63
2023-05-25T17:42:04.325Z,45.31
2023-05-25T17:44:31.470Z,44.94
2023-05-25T17:46:58.691Z,44.38
2023-05-25T17:49:25.833Z,44.43
2023-05-25T17:51:53.260Z,44.70
2023-05-25T17:54:25.334Z,44.85
2023-05-25T17:56:52.721Z,44.90
2023-05-25T17:59:19.862Z,45.02
2023-05-25T18:01:47.250Z,45.23
2023-05-25T18:04:14.579Z,45.38
2023-05-25T18:06:41.969Z,45.35
2023-05-25T18:09:09.154Z,45.93
2023-05-25T18:11:36.670Z,46.20
2023-05-25T18:14:07.774Z,46.77
2023-05-25T18:16:39.550Z,46.72
2023-05-25T18:19:09.234Z,47.18
2023-05-25T18:21:40.203Z,47.38
2023-05-25T18:24:08.401Z,47.79
2023-05-25T18:26:36.141Z,48.32
2023-05-25T18:29:03.519Z,48.29
2023-05-25T18:31:32.115Z,48.52
2023-05-25T18:34:00.300Z,48.78
2023-05-25T18:36:27.598Z,48.94
2023-05-25T18:38:54.812Z,49.57
2023-05-25T18:41:24.192Z,49.67
2023-05-25T18:43:51.584Z,50.30
2023-05-25T18:46:18.993Z,50.29
2023-05-25T18:48:46.478Z,50.57
2023-05-25T18:51:15.421Z,51.09
2023-05-25T18:53:42.986Z,51.50
2023-05-25T18:56:10.331Z,51.54
2023-05-25T18:58:37.662Z,51.78
2023-05-25T19:01:05.029Z,52.13
2023-05-25T19:03:32.419Z,52.61
2023-05-25T19:05:59.677Z,52.75
2023-05-25T19:08:26.831Z,53.01
2023-05-25T19:10:54.081Z,53.62
2023-05-25T19:13:22.854Z,53.86
2023-05-25T19:15:50.870Z,54.14
2023-05-25T19:18:18.303Z,54.19
2023-05-25T19:20:46.055Z,54.24
2023-05-25T19:23:13.654Z,55.07
2023-05-25T19:25:40.866Z,55.24
2023-05-25T19:28:08.179Z,55.38
2023-05-25T19:30:35.473Z,55.91
2023-05-25T19:33:02.766Z,56.53
2023-05-25T19:35:30.036Z,56.86
2023-05-25T19:37:57.997Z,56.80
2023-05-25T19:40:26.484Z,57.00
2023-05-25T19:42:53.693Z,57.33
2023-05-25T19:45:21.129Z,57.20
2023-05-25T19:47:48.530Z,57.49
2023-05-25T19:50:16.432Z,57.90
2023-05-25T19:52:43.871Z,57.90
2023-05-25T19:55:11.317Z,58.27
2023-05-25T19:57:38.687Z,58.53
2023-05-25T20:00:11.620Z,58.42
2023-05-25T20:02:52.638Z,58.58
2023-05-25T20:05:21.441Z,58.94
2023-05-25T20:07:50.774Z,59.30
2023-05-25T20:10:18.278Z,59.05
2023-05-25T20:12:45.490Z,58.39
2023-05-25T20:15:12.761Z,57.89
2023-05-25T20:17:40.101Z,57.73
2023-05-25T20:20:07.643Z,57.47
2023-05-25T20:22:34.847Z,57.01
2023-05-25T20:25:02.264Z,56.79
2023-05-25T20:27:29.415Z,56.46
2023-05-25T20:29:56.804Z,56.42
2023-05-25T20:32:24.142Z,56.37
2023-05-25T20:34:51.384Z,56.39
2023-05-25T20:37:18.641Z,56.37
2023-05-25T20:39:45.868Z,56.22
2023-05-25T20:42:14.057Z,55.88
2023-05-25T20:44:41.371Z,56.01
2023-05-25T20:47:08.659Z,56.38
2023-05-25T20:49:35.895Z,56.08
2023-05-25T20:52:03.337Z,56.02
2023-05-25T20:54:30.620Z,56.32
2023-05-25T20:56:57.898Z,56.54
2023-05-25T20:59:25.215Z,56.51
2023-05-25T21:01:52.691Z,56.40
2023-05-25T21:04:20.073Z,56.50
2023-05-25T21:06:47.277Z,56.80
2023-05-25T21:09:14.590Z,56.60
2023-05-25T21:11:41.829Z,56.75
2023-05-25T21:14:09.078Z,56.61
2023-05-25T21:16:36.372Z,56.87
2023-05-25T21:19:03.615Z,56.67
2023-05-25T21:21:33.918Z,56.80
2023-05-25T21:24:01.820Z,56.83
2023-05-25T21:26:30.983Z,57.01
2023-05-25T21:28:58.464Z,57.28
2023-05-25T21:31:25.838Z,57.63
2023-05-25T21:33:53.239Z,57.54
2023-05-25T21:36:20.803Z,57.67
2023-05-25T21:38:48.029Z,57.70
2023-05-25T21:41:15.277Z,57.79
2023-05-25T21:43:42.471Z,57.81
2023-05-25T21:46:09.722Z,57.79
2023-05-25T21:48:36.939Z,57.90
2023-05-25T21:51:04.309Z,57.97
2023-05-25T21:53:31.519Z,58.12
2023-05-25T21:55:58.752Z,58.36
2023-05-25T21:58:26.107Z,58.75
2023-05-25T22:00:53.451Z,58.92
2023-05-25T22:03:20.732Z,59.23
2023-05-25T22:05:48.307Z,59.29
2023-05-25T22:08:15.595Z,59.35
2023-05-25T22:10:42.822Z,59.53
2023-05-25T22:13:10.102Z,59.55
2023-05-25T22:15:37.292Z,59.57
2023-05-25T22:18:05.924Z,59.74
2023-05-25T22:20:33.422Z,60.03
2023-05-25T22:23:01.084Z,59.84
2023-05-25T22:25:28.202Z,60.01
2023-05-25T22:27:55.924Z,60.28
2023-05-25T22:30:23.113Z,60.64
2023-05-25T22:32:50.529Z,60.71
2023-05-25T22:35:17.700Z,60.61
2023-05-25T22:37:44.975Z,60.66
2023-05-25T22:40:12.616Z,60.91
2023-05-25T22:42:40.269Z,61.21
2023-05-25T22:45:08.070Z,61.51
2023-05-25T22:47:35.722Z,61.51
2023-05-25T22:50:02.982Z,61.43
2023-05-25T22:52:30.353Z,61.35
2023-05-25T22:54:57.552Z,61.97
2023-05-25T22:57:24.840Z,61.78
2023-05-25T22:59:52.002Z,62.19
2023-05-25T23:02:19.258Z,62.67
2023-05-25T23:04:46.505Z,62.54
2023-05-25T23:07:13.849Z,62.90
2023-05-25T23:09:41.255Z,63.27
2023-05-25T23:12:08.563Z,63.18
2023-05-25T23:14:35.723Z,63.46
2023-05-25T23:17:02.937Z,63.68
2023-05-25T23:23:36.115Z,64.24
2023-05-25T23:26:03.717Z,64.80
2023-05-25T23:28:31.181Z,65.11
2023-05-25T23:30:58.414Z,65.71
2023-05-25T23:33:25.636Z,65.93
2023-05-25T23:35:52.830Z,66.53
2023-05-25T23:38:20.127Z,66.12
2023-05-25T23:40:47.401Z,66.29
2023-05-25T23:43:14.665Z,66.62
2023-05-25T23:45:42.080Z,67.30
2023-05-25T23:48:09.341Z,67.52
2023-05-25T23:50:36.611Z,67.59
2023-05-25T23:53:03.805Z,68.05
2023-05-25T23:55:31.118Z,68.25
2023-05-25T23:57:58.315Z,68.51
